Time;durP1;ratioP1;P1;durP2;ratioP2;P2;SDS_P1;SDS_P2;PMS_P1;PMS_P2;Temp;Humidity;BMP_temperature;BMP_pressure;BME280_temperature;BME280_humidity;BME280_pressure;Samples;Min_cycle;Max_cycle;Signal;HPM_P1;HPM_P2
2023/04/09 00:01:55;;;;;;;20.33;18.83;;;9.10;99.90;;;;;;4899210;29;20530;-78
2023/04/09 00:04:22;;;;;;;19.50;18.10;;;9.20;99.90;;;;;;4899143;29;20556;-78
2023/04/09 00:06:49;;;;;;;22.57;20.83;;;9.10;99.90;;;;;;4899348;29;21096;-77
2023/04/09 00:09:16;;;;;;;19.60;18.10;;;8.90;99.90;;;;;;4899548;29;20470;-78
2023/04/09 00:11:43;;;;;;;18.83;17.33;;;8.80;99.90;;;;;;4899388;29;20493;-78
2023/04/09 00:14:09;;;;;;;22.90;21.33;;;8.90;99.90;;;;;;4899019;29;20458;-78
2023/04/09 00:16:37;;;;;;;20.07;18.57;;;9.00;99.90;;;;;;4899174;29;20451;-78
2023/04/09 00:19:04;;;;;;;19.30;17.80;;;9.00;99.90;;;;;;4899126;29;20490;-80
2023/04/09 00:21:31;;;;;;;18.87;17.53;;;9.10;99.90;;;;;;4899700;29;20458;-79
2023/04/09 00:23:58;;;;;;;25.00;23.00;;;9.10;99.90;;;;;;4899444;29;20462;-78
2023/04/09 00:26:24;;;;;;;21.47;20.07;;;9.10;99.90;;;;;;4899142;29;20465;-77
2023/04/09 00:28:51;;;;;;;21.13;19.73;;;9.10;99.90;;;;;;4898943;29;20456;-78
2023/04/09 00:31:18;;;;;;;19.53;18.03;;;9.10;99.90;;;;;;4895476;29;20459;-78
2023/04/09 00:33:49;;;;;;;21.33;19.80;;;9.00;99.90;;;;;;4896531;29;20459;-79
2023/04/09 00:36:15;;;;;;;21.00;19.50;;;8.80;99.90;;;;;;4895903;29;20527;-78
2023/04/09 00:38:42;;;;;;;20.33;18.90;;;8.90;99.90;;;;;;4896112;29;20609;-78
2023/04/09 00:41:09;;;;;;;20.07;18.60;;;8.90;99.90;;;;;;4895942;29;20458;-79
2023/04/09 00:43:36;;;;;;;21.70;20.20;;;8.80;99.90;;;;;;4895697;29;21001;-79
2023/04/09 00:46:04;;;;;;;20.37;18.97;;;8.90;99.90;;;;;;4896082;29;20455;-79
2023/04/09 00:48:31;;;;;;;21.20;19.57;;;8.90;99.90;;;;;;4896305;29;20458;-79
2023/04/09 00:50:59;;;;;;;22.17;20.50;;;9.00;99.90;;;;;;4896667;29;20461;-81
2023/04/09 00:53:26;;;;;;;20.93;19.33;;;9.00;99.90;;;;;;4896694;29;20458;-80
2023/04/09 00:55:53;;;;;;;23.67;21.87;;;8.90;99.90;;;;;;4895695;29;20463;-79
2023/04/09 00:58:20;;;;;;;21.80;20.20;;;8.70;99.90;;;;;;4895631;29;20609;-79
2023/04/09 01:00:46;;;;;;;20.37;18.67;;;8.80;99.90;;;;;;4895674;29;20984;-79
2023/04/09 01:03:13;;;;;;;22.13;20.53;;;8.90;99.90;;;;;;4895989;29;20794;-80
2023/04/09 01:05:51;;;;;;;22.57;20.87;;;8.70;99.90;;;;;;4895779;29;20460;-80
2023/04/09 01:08:31;;;;;;;19.83;18.30;;;8.80;99.90;;;;;;4895584;29;20489;-80
2023/04/09 01:11:05;;;;;;;20.03;18.73;;;8.90;99.90;;;;;;4895630;29;20495;-80
2023/04/09 01:13:45;;;;;;;21.73;20.13;;;8.90;99.90;;;;;;4895481;29;20510;-81
2023/04/09 01:16:14;;;;;;;22.67;21.00;;;8.90;99.90;;;;;;4895475;29;20550;-81
2023/04/09 01:18:47;;;;;;;20.97;19.60;;;8.90;99.90;;;;;;4895534;29;20487;-82
2023/04/09 01:21:19;;;;;;;22.73;21.10;;;8.90;99.90;;;;;;4896190;29;20444;-82
2023/04/09 01:23:55;;;;;;;20.90;19.40;;;8.90;99.90;;;;;;4897658;29;20876;-81
2023/04/09 01:26:37;;;;;;;21.60;20.00;;;8.80;99.90;;;;;;4913732;29;20561;-81
2023/04/09 01:29:07;;;;;;;21.13;19.63;;;8.80;99.90;;;;;;4916731;29;20451;-81
2023/04/09 01:31:37;;;;;;;20.20;18.80;;;8.70;99.90;;;;;;4914805;29;20455;-80
2023/04/09 01:34:06;;;;;;;20.57;19.07;;;8.80;99.90;;;;;;4905745;29;20447;-80
2023/04/09 01:36:33;;;;;;;22.30;20.50;;;8.70;99.90;;;;;;4896521;29;20506;-80
2023/04/09 01:39:01;;;;;;;20.73;19.17;;;8.70;99.90;;;;;;4896081;29;20989;-79
2023/04/09 01:41:31;;;;;;;20.80;19.30;;;8.70;99.90;;;;;;4895639;29;20470;-80
2023/04/09 01:44:00;;;;;;;21.67;19.67;;;8.60;99.90;;;;;;4895371;29;20463;-80
2023/04/09 01:46:29;;;;;;;21.63;20.10;;;8.70;99.90;;;;;;4895076;29;20455;-80
2023/04/09 01:48:56;;;;;;;21.23;19.80;;;8.70;99.90;;;;;;4895121;29;20511;-81
2023/04/09 01:51:23;;;;;;;24.27;22.57;;;8.70;99.90;;;;;;4894948;29;20463;-79
2023/04/09 01:53:50;;;;;;;20.60;19.03;;;8.80;99.90;;;;;;4894742;29;20493;-79
2023/04/09 01:56:17;;;;;;;21.20;19.50;;;8.80;99.90;;;;;;4894817;29;20459;-79
2023/04/09 01:58:44;;;;;;;22.00;20.40;;;8.80;99.90;;;;;;4894641;29;20491;-79
2023/04/09 02:01:14;;;;;;;24.40;22.40;;;8.90;99.90;;;;;;4894655;29;20455;-79
2023/04/09 02:03:47;;;;;;;20.43;18.87;;;8.90;99.90;;;;;;4894560;29;20467;-79
2023/04/09 02:06:16;;;;;;;21.87;20.27;;;8.90;99.90;;;;;;4894619;29;20466;-79
2023/04/09 02:08:46;;;;;;;23.80;21.80;;;8.70;99.90;;;;;;4895579;29;20475;-78
2023/04/09 02:11:15;;;;;;;20.30;18.80;;;8.70;99.90;;;;;;4894739;29;20455;-79
2023/04/09 02:13:42;;;;;;;22.20;20.50;;;8.70;99.90;;;;;;4894492;29;20455;-78
2023/04/09 02:16:12;;;;;;;20.43;18.77;;;8.70;99.90;;;;;;4894089;29;20565;-79
2023/04/09 02:18:39;;;;;;;23.20;21.60;;;8.70;99.90;;;;;;4894859;29;20527;-82
2023/04/09 02:21:07;;;;;;;24.03;22.23;;;8.60;99.90;;;;;;4894427;29;20835;-81
2023/04/09 02:23:34;;;;;;;22.93;21.17;;;8.40;99.90;;;;;;4894047;29;20467;-81
2023/04/09 02:26:01;;;;;;;24.23;22.43;;;8.30;99.90;;;;;;4894325;29;20467;-81
2023/04/09 02:28:28;;;;;;;21.97;20.47;;;8.30;99.90;;;;;;4894278;29;20471;-79
2023/04/09 02:30:55;;;;;;;22.03;20.30;;;8.20;99.90;;;;;;4894000;29;20466;-79
2023/04/09 02:33:21;;;;;;;22.10;20.40;;;8.30;99.90;;;;;;4894309;29;20458;-80
2023/04/09 02:35:48;;;;;;;26.80;24.90;;;8.30;99.90;;;;;;4894042;29;20490;-80
2023/04/09 02:38:16;;;;;;;24.40;22.40;;;8.10;99.90;;;;;;4893823;29;20503;-79
2023/04/09 02:40:43;;;;;;;23.07;21.30;;;8.00;99.90;;;;;;4894033;29;20467;-79
2023/04/09 02:43:10;;;;;;;23.53;21.73;;;8.10;99.90;;;;;;4893648;29;20913;-80
2023/04/09 02:45:37;;;;;;;24.60;22.80;;;8.10;99.90;;;;;;4893638;29;20456;-79
2023/04/09 02:48:04;;;;;;;23.90;22.20;;;8.10;99.90;;;;;;4893669;29;20471;-80
2023/04/09 02:50:31;;;;;;;23.90;22.10;;;8.00;99.90;;;;;;4893888;29;20451;-81
2023/04/09 02:52:57;;;;;;;23.97;22.07;;;8.10;99.90;;;;;;4893296;29;20562;-77
2023/04/09 02:55:25;;;;;;;21.30;19.80;;;8.00;99.90;;;;;;4893476;29;20871;-78
2023/04/09 02:57:52;;;;;;;22.40;20.70;;;7.90;99.90;;;;;;4893575;29;20466;-78
2023/04/09 03:00:19;;;;;;;22.10;20.50;;;8.10;99.90;;;;;;4894118;29;20447;-76
2023/04/09 03:02:45;;;;;;;21.43;19.87;;;8.00;99.90;;;;;;4894786;29;21054;-78
2023/04/09 03:05:12;;;;;;;23.50;21.83;;;8.10;99.90;;;;;;4894990;29;20471;-79
2023/04/09 03:07:39;;;;;;;22.77;21.17;;;8.10;99.90;;;;;;4894981;29;20459;-78
2023/04/09 03:10:06;;;;;;;23.07;21.17;;;8.20;99.90;;;;;;4894844;29;20709;-81
2023/04/09 03:12:34;;;;;;;23.20;21.40;;;8.20;99.90;;;;;;4894625;29;20470;-81
2023/04/09 03:15:01;;;;;;;22.60;20.90;;;8.20;99.90;;;;;;4894563;29;20459;-82
2023/04/09 03:17:30;;;;;;;21.87;20.20;;;8.20;99.90;;;;;;4894837;29;20466;-81
2023/04/09 03:19:57;;;;;;;23.00;21.27;;;8.30;99.90;;;;;;4887008;29;20496;-82
2023/04/09 03:22:24;;;;;;;24.07;22.30;;;8.30;99.90;;;;;;4874774;29;20460;-80
2023/04/09 03:24:51;;;;;;;23.83;22.03;;;8.40;99.90;;;;;;4874545;29;21063;-83
2023/04/09 03:27:17;;;;;;;24.40;22.47;;;8.40;99.90;;;;;;4874475;29;20452;-81
2023/04/09 03:29:45;;;;;;;20.23;18.83;;;8.30;99.90;;;;;;4874780;29;20452;-79
2023/04/09 03:32:12;;;;;;;21.53;19.93;;;8.30;99.90;;;;;;4874725;29;20456;-80
2023/04/09 03:34:39;;;;;;;24.33;22.20;;;8.30;99.90;;;;;;4874613;29;20826;-80
2023/04/09 03:37:05;;;;;;;22.60;21.00;;;8.30;99.90;;;;;;4873746;29;20757;-80
2023/04/09 03:39:32;;;;;;;20.80;19.30;;;8.40;99.90;;;;;;4873511;29;20496;-78
2023/04/09 03:42:00;;;;;;;22.10;20.40;;;8.50;99.90;;;;;;4873760;29;20941;-79
2023/04/09 03:44:27;;;;;;;22.47;20.77;;;8.40;99.90;;;;;;4873750;29;20817;-79
2023/04/09 03:46:55;;;;;;;22.60;20.90;;;8.40;99.90;;;;;;4873458;29;20448;-79
2023/04/09 03:49:22;;;;;;;23.30;21.63;;;8.30;99.90;;;;;;4873464;29;20731;-81
2023/04/09 03:51:48;;;;;;;21.90;20.37;;;8.30;99.90;;;;;;4873600;29;20449;-82
2023/04/09 03:54:15;;;;;;;22.77;20.87;;;8.30;99.90;;;;;;4873561;29;20475;-81
2023/04/09 03:56:42;;;;;;;22.87;21.23;;;8.20;99.90;;;;;;4873870;29;20459;-81
2023/04/09 03:59:08;;;;;;;23.33;21.73;;;8.00;99.90;;;;;;4873357;29;20484;-81
2023/04/09 04:01:35;;;;;;;22.87;21.17;;;8.00;99.90;;;;;;4873465;29;20455;-80
2023/04/09 04:04:04;;;;;;;22.27;20.47;;;7.90;99.90;;;;;;4873588;29;20488;-79
2023/04/09 04:06:33;;;;;;;24.33;22.53;;;7.90;99.90;;;;;;4876020;29;20970;-80
2023/04/09 04:09:00;;;;;;;24.80;22.67;;;7.90;99.90;;;;;;4876736;29;20814;-82
2023/04/09 04:11:26;;;;;;;22.37;20.87;;;7.90;99.90;;;;;;4876896;29;20467;-82
2023/04/09 04:13:54;;;;;;;21.57;19.97;;;7.90;99.90;;;;;;4877170;29;20452;-84
2023/04/09 04:16:21;;;;;;;23.43;21.70;;;8.00;99.90;;;;;;4876876;29;20480;-84
2023/04/09 04:18:48;;;;;;;23.27;21.50;;;8.00;99.90;;;;;;4878125;29;20492;-85
2023/04/09 04:21:16;;;;;;;24.10;22.10;;;7.90;99.90;;;;;;4880085;29;20459;-84
2023/04/09 04:23:43;;;;;;;25.07;23.30;;;7.80;99.90;;;;;;4898791;29;20485;-83
2023/04/09 04:26:10;;;;;;;20.63;19.13;;;7.70;99.90;;;;;;4901169;29;20439;-84
2023/04/09 04:28:37;;;;;;;22.67;20.90;;;7.70;99.90;;;;;;4897807;29;20547;-83
2023/04/09 04:31:08;;;;;;;22.90;21.10;;;7.80;99.90;;;;;;4888331;29;20452;-84
2023/04/09 04:33:35;;;;;;;22.93;21.13;;;7.70;99.90;;;;;;4879088;29;20520;-83
2023/04/09 04:39:04;;;;;;;24.20;22.40;;;7.70;99.90;;;;;;5085734;27;20617;-83
2023/04/09 04:41:31;;;;;;;22.67;20.97;;;7.90;99.90;;;;;;5087051;28;20457;-79
2023/04/09 04:43:58;;;;;;;26.43;24.37;;;7.80;99.90;;;;;;5087220;28;20442;-80
2023/04/09 04:46:24;;;;;;;25.77;23.67;;;7.90;99.90;;;;;;5086916;28;20445;-80
2023/04/09 04:48:51;;;;;;;21.10;19.40;;;7.90;99.90;;;;;;5086968;28;20450;-80
2023/04/09 04:51:18;;;;;;;25.67;23.67;;;7.80;99.90;;;;;;5087127;28;20448;-80
2023/04/09 04:53:44;;;;;;;23.93;22.30;;;7.90;99.90;;;;;;5087284;28;20449;-82
2023/04/09 04:56:14;;;;;;;24.53;22.73;;;7.90;99.90;;;;;;5087146;28;20632;-82
2023/04/09 04:58:41;;;;;;;24.17;21.73;;;7.90;99.90;;;;;;5087075;28;20486;-83
2023/04/09 05:01:08;;;;;;;23.87;21.97;;;7.90;99.90;;;;;;5081648;28;20505;-79
2023/04/09 05:03:34;;;;;;;24.07;22.37;;;7.90;99.90;;;;;;5086383;28;20480;-82
2023/04/09 05:06:01;;;;;;;26.50;24.50;;;7.90;99.90;;;;;;5086406;28;20450;-80
2023/04/09 05:08:29;;;;;;;24.83;22.77;;;7.90;99.90;;;;;;5086366;28;20451;-79
2023/04/09 05:10:55;;;;;;;24.13;22.33;;;8.10;99.90;;;;;;5086228;28;20545;-79
2023/04/09 05:13:23;;;;;;;21.17;19.57;;;8.20;99.90;;;;;;5086579;28;20439;-80
2023/04/09 05:15:50;;;;;;;22.30;20.70;;;8.30;99.90;;;;;;5086567;28;20453;-78
2023/04/09 05:18:17;;;;;;;24.70;22.80;;;8.30;99.90;;;;;;5086589;28;20489;-82
2023/04/09 05:20:43;;;;;;;24.13;22.20;;;8.10;99.90;;;;;;5086784;28;20442;-81
2023/04/09 05:23:11;;;;;;;23.50;21.70;;;7.90;99.90;;;;;;5084874;28;20455;-81
2023/04/09 05:25:38;;;;;;;22.60;21.00;;;8.10;99.90;;;;;;5082170;28;20442;-81
2023/04/09 05:28:05;;;;;;;25.17;23.17;;;8.30;99.90;;;;;;5085145;28;20446;-82
2023/04/09 05:30:33;;;;;;;24.90;23.10;;;8.40;99.90;;;;;;5085171;28;20446;-80
2023/04/09 05:32:59;;;;;;;25.67;23.77;;;8.60;99.90;;;;;;5085263;28;20528;-81
2023/04/09 05:35:26;;;;;;;22.50;20.80;;;8.70;99.90;;;;;;5082515;28;20998;-80
2023/04/09 05:37:53;;;;;;;22.90;21.23;;;8.80;99.90;;;;;;5075152;28;21011;-81
2023/04/09 05:40:20;;;;;;;23.90;22.20;;;8.90;99.90;;;;;;5074024;28;20473;-85
2023/04/09 05:42:46;;;;;;;24.07;22.37;;;9.10;99.90;;;;;;5074651;28;20442;-79
2023/04/09 05:45:13;;;;;;;20.97;19.50;;;9.50;99.90;;;;;;5075677;28;20443;-80
2023/04/09 05:47:41;;;;;;;19.87;18.17;;;10.00;99.90;;;;;;5072742;28;21000;-81
2023/04/09 05:50:08;;;;;;;19.77;18.07;;;10.70;99.90;;;;;;5061764;28;20450;-81
2023/04/09 05:52:35;;;;;;;19.27;17.97;;;11.20;99.90;;;;;;5061938;28;20450;-79
2023/04/09 05:55:02;;;;;;;18.97;17.40;;;11.80;99.90;;;;;;5060630;28;20436;-80
2023/04/09 05:57:29;;;;;;;20.17;18.80;;;12.40;99.90;;;;;;5060057;28;20498;-80
2023/04/09 05:59:56;;;;;;;20.17;18.67;;;12.90;99.90;;;;;;5059607;28;20441;-80
2023/04/09 06:02:23;;;;;;;18.93;17.67;;;13.00;99.90;;;;;;5050088;28;20440;-83
2023/04/09 06:04:51;;;;;;;18.13;16.83;;;13.70;99.90;;;;;;5049548;28;20451;-83
2023/04/09 06:07:18;;;;;;;17.63;16.33;;;14.40;99.90;;;;;;5052469;28;20451;-82
2023/04/09 06:09:45;;;;;;;19.37;18.07;;;14.60;99.90;;;;;;5052627;28;20459;-84
2023/04/09 06:12:12;;;;;;;18.70;17.50;;;14.70;99.90;;;;;;5052526;28;20511;-84
2023/04/09 06:14:39;;;;;;;20.23;18.83;;;14.90;99.00;;;;;;5052060;28;20450;-84
2023/04/09 06:17:05;;;;;;;19.30;17.90;;;14.70;99.10;;;;;;5052133;28;20513;-85
2023/04/09 06:19:32;;;;;;;18.60;17.40;;;14.80;99.60;;;;;;5052219;28;20966;-85
2023/04/09 06:22:00;;;;;;;18.60;17.40;;;14.90;99.00;;;;;;5052738;28;20455;-86
2023/04/09 06:24:27;;;;;;;17.23;16.10;;;14.90;98.70;;;;;;5052498;28;20487;-85
2023/04/09 06:26:54;;;;;;;16.77;15.67;;;15.20;98.60;;;;;;5062872;28;20458;-85
2023/04/09 06:29:20;;;;;;;18.10;16.90;;;15.60;96.90;;;;;;5072185;28;20465;-86
2023/04/09 06:31:47;;;;;;;20.03;18.63;;;15.80;96.80;;;;;;5072243;28;20491;-87
2023/04/09 06:34:14;;;;;;;17.77;16.47;;;16.00;96.00;;;;;;5075580;28;20451;-90
2023/04/09 06:36:42;;;;;;;18.60;17.40;;;16.00;95.20;;;;;;5073623;28;20931;-89
2023/04/09 06:39:10;;;;;;;17.77;16.47;;;16.00;94.60;;;;;;5071775;28;20499;-77
2023/04/09 06:41:37;;;;;;;18.23;17.10;;;15.80;95.20;;;;;;5071605;28;20482;-82
2023/04/09 06:44:04;;;;;;;17.50;16.43;;;16.00;94.60;;;;;;5072843;28;20937;-89
2023/04/09 06:46:30;;;;;;;20.70;19.27;;;15.70;94.10;;;;;;5082176;28;20458;-87
2023/04/09 06:48:57;;;;;;;16.60;15.50;;;15.60;94.00;;;;;;5095546;28;20434;-86
2023/04/09 06:51:24;;;;;;;16.90;15.60;;;15.40;93.90;;;;;;5092007;28;20454;-90
2023/04/09 06:53:50;;;;;;;16.90;15.70;;;15.40;94.70;;;;;;5090501;28;20454;-90
2023/04/09 06:56:18;;;;;;;18.97;17.57;;;15.60;93.90;;;;;;5097462;28;20416;-90
2023/04/09 06:58:46;;;;;;;17.40;16.10;;;15.80;93.50;;;;;;5093749;28;20479;-87
2023/04/09 07:01:12;;;;;;;17.07;15.97;;;16.30;92.10;;;;;;5095397;28;20423;-88
2023/04/09 07:03:39;;;;;;;17.50;16.20;;;16.60;92.10;;;;;;5095950;28;20450;-91
2023/04/09 07:06:06;;;;;;;18.40;17.23;;;17.10;90.90;;;;;;5097049;28;20443;-89
2023/04/09 07:08:33;;;;;;;16.20;15.20;;;17.20;90.60;;;;;;5097614;28;20428;-90
2023/04/09 07:10:59;;;;;;;16.80;15.60;;;17.30;90.10;;;;;;5097097;28;21034;-89
2023/04/09 07:13:27;;;;;;;17.27;16.07;;;17.60;89.70;;;;;;5095523;28;20461;-89
2023/04/09 07:15:54;;;;;;;15.83;14.90;;;18.00;88.10;;;;;;5090276;28;20455;-90
2023/04/09 07:18:21;;;;;;;17.50;16.30;;;18.10;84.30;;;;;;5075659;28;21047;-90
2023/04/09 07:20:47;;;;;;;16.47;15.47;;;17.50;87.20;;;;;;5067349;28;20839;-89
2023/04/09 07:23:15;;;;;;;15.27;14.37;;;17.90;86.00;;;;;;5072932;28;20467;-88
2023/04/09 07:25:42;;;;;;;17.03;15.83;;;18.20;85.00;;;;;;5070940;28;20461;-86
2023/04/09 07:28:10;;;;;;;19.00;17.90;;;18.60;84.20;;;;;;5070734;28;20538;-86
2023/04/09 07:30:40;;;;;;;17.83;16.63;;;19.10;82.50;;;;;;5070754;28;20656;-87
2023/04/09 07:33:06;;;;;;;17.20;16.10;;;19.00;81.10;;;;;;5071235;28;20509;-87
2023/04/09 07:48:51;;;;;;;17.80;16.63;;;18.00;76.60;;;;;;5010663;28;20405;-87
2023/04/09 07:51:19;;;;;;;16.57;15.50;;;16.60;83.30;;;;;;5023605;28;20507;-86
2023/04/09 07:53:46;;;;;;;15.93;14.90;;;14.90;91.20;;;;;;5033347;28;20468;-87
2023/04/09 08:04:47;;;;;;;14.20;13.30;;;15.80;86.00;;;;;;5401450;22;20973;-86
2023/04/09 08:22:00;;;;;;;14.80;13.90;;;16.10;79.20;;;;;;4997060;28;20450;-89
2023/04/09 08:25:12;;;;;;;;;;;;;;;;;;;;;
2023/04/09 08:34:56;;;;;;;17.27;16.07;;;16.10;82.90;;;;;;4931247;29;20425;-88
2023/04/09 08:37:49;;;;;;;14.87;13.83;;;16.60;85.10;;;;;;4911787;29;20497;-88
2023/04/09 08:40:18;;;;;;;16.10;15.00;;;16.40;83.20;;;;;;4942456;28;20949;-88
2023/04/09 08:42:45;;;;;;;14.17;13.27;;;16.40;83.50;;;;;;5039862;28;20448;-88
2023/04/09 08:45:13;;;;;;;12.20;11.50;;;16.40;80.40;;;;;;5052105;28;20788;-87
2023/04/09 08:47:41;;;;;;;13.20;12.40;;;15.90;78.30;;;;;;5052504;28;20966;-90
2023/04/09 08:50:09;;;;;;;14.90;14.00;;;16.30;79.80;;;;;;5033284;28;20441;-90
2023/04/09 08:52:36;;;;;;;15.90;14.80;;;15.50;81.70;;;;;;5033962;28;20441;-91
2023/04/09 08:55:03;;;;;;;15.47;14.37;;;15.60;83.40;;;;;;5031648;28;20456;-86
2023/04/09 08:57:37;;;;;;;16.40;15.30;;;16.40;81.20;;;;;;5030052;28;20962;-86
2023/04/09 09:00:04;;;;;;;15.93;14.83;;;16.80;79.10;;;;;;5038633;28;20467;-88
2023/04/09 09:02:31;;;;;;;16.60;15.40;;;16.00;82.20;;;;;;5037958;28;20479;-89
2023/04/09 09:04:59;;;;;;;15.73;14.40;;;16.20;82.50;;;;;;5031303;28;20480;-89
2023/04/09 09:07:28;;;;;;;15.00;14.03;;;15.80;83.30;;;;;;5032145;28;20457;-89
2023/04/09 09:09:56;;;;;;;16.37;15.27;;;16.30;82.10;;;;;;5030044;28;20473;-86
2023/04/09 09:12:35;;;;;;;15.70;14.70;;;15.70;82.60;;;;;;5029100;28;20480;-88
2023/04/09 09:15:02;;;;;;;16.80;15.60;;;15.40;84.00;;;;;;5030247;28;20487;-88
2023/04/09 09:17:29;;;;;;;17.33;16.23;;;16.10;83.00;;;;;;5030641;28;20456;-88
2023/04/09 09:19:56;;;;;;;15.47;14.47;;;16.50;82.30;;;;;;5029462;28;20480;-82
2023/04/09 09:22:24;;;;;;;16.80;15.60;;;17.70;78.60;;;;;;5036359;28;20995;-81
2023/04/09 09:24:52;;;;;;;16.20;14.97;;;17.30;77.60;;;;;;5051201;28;20509;-85
2023/04/09 09:27:38;;;;;;;16.73;15.60;;;17.00;77.20;;;;;;5052259;28;20444;-87
2023/04/09 09:30:07;;;;;;;13.67;12.80;;;15.70;79.20;;;;;;5053286;28;20835;-86
2023/04/09 09:32:34;;;;;;;15.80;14.70;;;15.80;79.50;;;;;;5048116;28;20479;-86
2023/04/09 09:35:02;;;;;;;15.10;14.10;;;15.40;78.20;;;;;;5053127;28;20551;-87
2023/04/09 09:37:30;;;;;;;14.83;13.83;;;15.20;80.50;;;;;;5053003;28;20543;-90
2023/04/09 09:39:57;;;;;;;15.60;14.53;;;16.40;78.70;;;;;;5057961;28;20877;-90
2023/04/09 09:42:25;;;;;;;16.30;15.13;;;17.10;76.00;;;;;;5053125;28;20459;-85
2023/04/09 09:44:53;;;;;;;16.70;15.60;;;17.20;77.40;;;;;;5050657;28;20455;-84
2023/04/09 09:47:21;;;;;;;17.27;16.07;;;16.60;78.00;;;;;;5050611;28;20475;-85
2023/04/09 09:49:48;;;;;;;15.63;14.57;;;15.80;80.00;;;;;;5051769;28;20452;-85
2023/04/09 09:52:18;;;;;;;15.27;14.27;;;15.00;81.00;;;;;;5051804;28;20456;-85
2023/04/09 09:54:52;;;;;;;13.90;13.00;;;14.90;81.50;;;;;;5052980;28;20517;-85
2023/04/09 09:57:21;;;;;;;13.17;12.37;;;15.50;78.20;;;;;;5054554;28;20455;-85
2023/04/09 09:59:54;;;;;;;14.77;13.80;;;16.50;75.80;;;;;;5059525;28;20512;-88
2023/04/09 10:02:25;;;;;;;14.00;13.17;;;17.40;74.40;;;;;;5074551;28;20448;-84
2023/04/09 10:04:52;;;;;;;15.17;14.17;;;16.90;74.00;;;;;;5075903;28;20483;-88
2023/04/09 10:07:20;;;;;;;14.93;13.90;;;16.80;75.30;;;;;;5069805;28;20529;-87
2023/04/09 10:09:50;;;;;;;13.97;12.97;;;16.40;75.20;;;;;;5073503;28;20447;-86
2023/04/09 10:12:19;;;;;;;14.10;13.30;;;16.20;75.50;;;;;;5055998;28;20509;-85
2023/04/09 10:14:46;;;;;;;13.50;12.70;;;16.40;73.70;;;;;;5052191;28;20463;-86
2023/04/09 10:17:15;;;;;;;13.37;12.47;;;16.40;73.80;;;;;;5051631;28;20492;-86
2023/04/09 10:19:46;;;;;;;12.07;11.37;;;16.30;73.60;;;;;;5051324;28;20487;-86
2023/04/09 10:22:18;;;;;;;12.63;11.90;;;16.70;73.10;;;;;;5051525;28;20460;-86
2023/04/09 10:24:46;;;;;;;14.10;13.30;;;17.10;71.30;;;;;;5051092;28;20470;-85
2023/04/09 10:27:14;;;;;;;13.87;12.97;;;17.60;71.10;;;;;;5051352;28;20447;-87
2023/04/09 10:29:45;;;;;;;13.20;12.50;;;17.80;69.20;;;;;;5051588;28;21004;-87
2023/04/09 10:32:19;;;;;;;12.80;12.00;;;17.90;66.70;;;;;;5051163;28;20468;-85
2023/04/09 10:34:48;;;;;;;12.43;11.73;;;18.00;66.50;;;;;;5050501;28;20612;-86
2023/04/09 10:37:16;;;;;;;11.30;10.70;;;18.10;64.50;;;;;;5050843;28;20472;-87
2023/04/09 10:39:46;;;;;;;12.07;11.37;;;18.60;61.50;;;;;;5052024;28;20486;-86
2023/04/09 10:42:14;;;;;;;13.40;12.70;;;18.90;62.50;;;;;;5051458;28;20460;-84
2023/04/09 10:44:41;;;;;;;12.10;11.50;;;18.80;60.70;;;;;;5050337;28;21068;-86
2023/04/09 10:47:08;;;;;;;13.03;12.23;;;18.80;62.10;;;;;;5050222;28;20452;-87
2023/04/09 10:49:38;;;;;;;13.80;12.90;;;18.80;61.90;;;;;;5050419;28;20968;-86
2023/04/09 10:52:06;;;;;;;14.13;13.23;;;19.20;61.20;;;;;;5050392;28;20986;-88
2023/04/09 10:54:44;;;;;;;12.47;11.80;;;19.60;59.70;;;;;;5049987;28;20452;-84
2023/04/09 10:57:13;;;;;;;10.97;10.47;;;19.40;57.80;;;;;;5050200;28;20892;-83
2023/04/09 10:59:42;;;;;;;12.60;12.00;;;18.30;57.80;;;;;;5050224;28;20591;-84
2023/04/09 11:02:13;;;;;;;11.17;10.57;;;17.80;58.70;;;;;;5050801;28;20451;-85
2023/04/09 11:04:56;;;;;;;11.70;11.00;;;17.60;60.80;;;;;;5050112;28;20483;-84
2023/04/09 11:07:25;;;;;;;11.60;11.00;;;18.00;59.80;;;;;;5050213;28;20463;-87
2023/04/09 11:09:51;;;;;;;11.67;11.07;;;18.80;57.20;;;;;;5049905;28;20444;-84
2023/04/09 11:12:18;;;;;;;11.90;11.30;;;18.20;55.30;;;;;;5050173;28;20459;-83
2023/04/09 11:14:45;;;;;;;12.77;12.07;;;18.00;56.10;;;;;;5049711;28;20467;-84
2023/04/09 11:17:13;;;;;;;12.43;11.70;;;17.80;59.20;;;;;;5050290;28;20571;-85
2023/04/09 11:19:39;;;;;;;12.87;12.10;;;17.60;60.50;;;;;;5049584;28;20484;-84
2023/04/09 11:22:08;;;;;;;13.57;12.77;;;17.30;61.70;;;;;;5049946;28;20557;-84
2023/04/09 11:24:41;;;;;;;12.77;12.07;;;17.30;62.50;;;;;;5049849;28;20808;-85
2023/04/09 11:27:08;;;;;;;13.17;12.40;;;17.90;59.30;;;;;;5049689;28;20452;-85
2023/04/09 11:29:35;;;;;;;12.80;12.00;;;17.70;58.10;;;;;;5049607;28;20628;-86
2023/04/09 11:32:04;;;;;;;12.67;11.97;;;18.30;58.90;;;;;;5050096;28;20806;-86
2023/04/09 11:34:30;;;;;;;12.50;11.80;;;19.30;56.10;;;;;;5049797;28;20883;-86
2023/04/09 11:36:58;;;;;;;13.00;12.30;;;20.00;55.20;;;;;;5050096;28;20466;-85
2023/04/09 11:39:26;;;;;;;13.00;12.30;;;19.50;55.00;;;;;;5049192;28;20483;-87
2023/04/09 11:41:54;;;;;;;12.07;11.47;;;18.70;56.10;;;;;;5049346;28;20543;-86
2023/04/09 11:44:21;;;;;;;13.67;12.87;;;18.20;57.00;;;;;;5049355;28;20444;-85
2023/04/09 11:46:49;;;;;;;12.97;12.27;;;18.30;56.90;;;;;;5048903;28;20498;-85
2023/04/09 11:49:16;;;;;;;12.43;11.73;;;18.00;56.50;;;;;;5049594;28;20460;-85
2023/04/09 11:51:43;;;;;;;12.10;11.50;;;18.20;57.20;;;;;;5049417;28;20463;-86
2023/04/09 11:54:12;;;;;;;12.93;12.23;;;19.00;56.10;;;;;;5049288;28;20452;-84
2023/04/09 11:56:40;;;;;;;11.83;11.23;;;18.60;55.50;;;;;;5048687;28;20432;-85
2023/04/09 11:59:07;;;;;;;11.63;10.93;;;18.50;55.70;;;;;;5049097;28;20490;-84
2023/04/09 12:01:34;;;;;;;12.37;11.60;;;17.90;55.30;;;;;;5049193;28;20479;-85
2023/04/09 12:04:01;;;;;;;12.03;11.43;;;17.60;57.20;;;;;;5048860;28;20577;-85
2023/04/09 12:06:29;;;;;;;12.50;11.70;;;18.40;56.40;;;;;;5049076;28;20459;-85
2023/04/09 12:08:56;;;;;;;11.50;10.90;;;17.90;56.80;;;;;;5049658;28;20484;-85
2023/04/09 12:11:28;;;;;;;12.33;11.63;;;17.70;57.90;;;;;;5049236;28;20462;-86
2023/04/09 12:14:01;;;;;;;12.07;11.23;;;17.60;56.70;;;;;;5049494;28;20515;-85
2023/04/09 12:16:30;;;;;;;12.20;11.50;;;17.30;57.90;;;;;;5049494;28;20921;-85
2023/04/09 12:19:01;;;;;;;13.00;12.20;;;17.50;58.10;;;;;;5049204;28;20977;-85
2023/04/09 12:21:45;;;;;;;12.00;11.30;;;17.80;57.90;;;;;;5049302;28;20464;-86
2023/04/09 12:24:12;;;;;;;12.73;12.03;;;18.10;57.10;;;;;;5049404;28;20538;-87
2023/04/09 12:26:39;;;;;;;12.50;11.60;;;18.50;58.10;;;;;;5049357;28;20456;-85
2023/04/09 12:29:07;;;;;;;12.70;11.90;;;19.00;56.60;;;;;;5049630;28;20456;-88
2023/04/09 12:31:34;;;;;;;12.80;12.10;;;19.20;56.20;;;;;;5048799;28;20459;-85
2023/04/09 12:34:01;;;;;;;12.93;12.23;;;18.80;55.40;;;;;;5048965;28;20456;-85
2023/04/09 12:36:28;;;;;;;11.90;11.10;;;18.50;56.20;;;;;;5049855;28;20482;-85
2023/04/09 12:38:55;;;;;;;11.50;10.80;;;18.40;55.20;;;;;;5050737;28;20440;-89
2023/04/09 12:41:22;;;;;;;12.23;11.63;;;18.10;55.70;;;;;;5058095;28;20731;-89
2023/04/09 12:43:49;;;;;;;13.20;12.40;;;17.80;56.10;;;;;;5066736;28;20471;-85
2023/04/09 12:46:18;;;;;;;11.40;10.90;;;17.10;56.70;;;;;;5064459;28;20589;-85
2023/04/09 12:48:44;;;;;;;12.37;11.67;;;17.50;58.20;;;;;;5068084;28;20450;-87
2023/04/09 12:51:11;;;;;;;11.50;10.90;;;17.90;56.30;;;;;;5074653;28;20452;-88
2023/04/09 12:53:38;;;;;;;11.90;11.20;;;18.60;55.00;;;;;;5074932;28;20428;-88
2023/04/09 12:56:05;;;;;;;11.27;10.67;;;18.50;54.30;;;;;;5072848;28;20436;-87
2023/04/09 12:58:32;;;;;;;11.50;10.90;;;18.60;54.50;;;;;;5067752;28;20458;-87
2023/04/09 13:00:59;;;;;;;11.43;10.83;;;17.90;55.10;;;;;;5070164;28;20487;-82
2023/04/09 13:03:27;;;;;;;11.60;11.00;;;18.20;56.50;;;;;;5057653;28;20448;-85
2023/04/09 13:05:54;;;;;;;12.00;11.40;;;19.10;55.00;;;;;;5055446;28;20460;-87
2023/04/09 13:08:21;;;;;;;11.77;11.17;;;19.80;53.50;;;;;;5057095;28;20487;-89
2023/04/09 13:10:48;;;;;;;11.90;11.30;;;19.30;52.50;;;;;;5051854;28;20830;-87
2023/04/09 13:13:15;;;;;;;12.00;11.33;;;19.00;53.50;;;;;;5056351;28;20462;-85
2023/04/09 13:15:43;;;;;;;11.90;11.30;;;18.60;54.50;;;;;;5056031;28;20699;-85
2023/04/09 13:18:10;;;;;;;12.60;11.07;;;18.40;55.80;;;;;;5056514;28;20464;-87
2023/04/09 13:20:39;;;;;;;11.70;10.97;;;18.40;55.70;;;;;;5060756;28;20476;-87
2023/04/09 13:23:06;;;;;;;11.70;11.10;;;18.00;54.30;;;;;;5059153;28;20470;-86
2023/04/09 13:25:33;;;;;;;12.83;12.03;;;18.20;54.70;;;;;;5069943;28;20454;-88